Terminal Aerodrome Forecast
Issued by NWS Albany, NY

Home | Current Version | Previous Version | Text Only | Print | Product List | Glossary On
Versions: 1 2 3 4 5 6 7 8 9 10 11 12 13 14 15 16 17 18 19 20 21 22 23
000
FTUS41 KALY 261100
TAFALB
TAF
KALB 261128Z 2612/2712 31005KT P6SM SCT040 OVC080
      TEMPO 2613/2614 3SM -SN BR BKN020 OVC040
     FM261400 34005KT 2SM -SN BR SCT012 OVC020
     FM261600 35005KT 3/4SM -SN BR VV008
     FM261800 35008KT 1/2SM SN FG VV004
     FM270200 33010KT 2SM -SN BR OVC008
     FM271000 32006KT P6SM VCSH OVC025=

USA.gov is the U.S. government's official web portal to all federal, state and local government web resources and services.